Time;durP1;ratioP1;P1;durP2;ratioP2;P2;SDS_P1;SDS_P2;PMS_P1;PMS_P2;Temp;Humidity;BMP_temperature;BMP_pressure;BME280_temperature;BME280_humidity;BME280_pressure;Samples;Min_cycle;Max_cycle;Signal;HPM_P1;HPM_P2
2022/03/30 00:01:34;;;;;;;28.67;17.23;;;10.00;97.00;;;;;;5019757;28;20199;-78
2022/03/30 00:04:01;;;;;;;25.47;16.70;;;10.10;97.20;;;;;;5012956;28;20200;-78
2022/03/30 00:06:28;;;;;;;28.50;17.33;;;10.30;97.20;;;;;;5019417;28;20242;-78
2022/03/30 00:08:56;;;;;;;28.83;17.60;;;10.40;96.70;;;;;;5011609;28;20195;-78
2022/03/30 00:11:25;;;;;;;28.83;18.37;;;10.40;96.60;;;;;;5020493;28;20664;-78
2022/03/30 00:13:52;;;;;;;23.93;17.10;;;9.90;97.30;;;;;;5024956;28;20673;-78
2022/03/30 00:16:20;;;;;;;28.63;17.63;;;10.00;97.10;;;;;;5023079;28;20211;-77
2022/03/30 00:18:47;;;;;;;25.00;16.17;;;10.00;97.10;;;;;;5022928;28;20669;-78
2022/03/30 00:21:14;;;;;;;25.23;17.00;;;9.90;97.70;;;;;;5026158;28;20206;-78
2022/03/30 00:23:54;;;;;;;26.03;16.87;;;9.90;98.00;;;;;;5025640;28;20234;-77
2022/03/30 00:26:21;;;;;;;28.70;16.90;;;10.00;97.30;;;;;;5023683;28;20712;-78
2022/03/30 00:28:50;;;;;;;26.07;17.90;;;9.90;97.70;;;;;;5017588;28;20196;-78
2022/03/30 00:31:18;;;;;;;26.57;17.10;;;9.80;97.90;;;;;;5030332;28;20207;-78
2022/03/30 00:33:48;;;;;;;26.53;18.33;;;9.80;98.00;;;;;;5020079;28;20195;-78
2022/03/30 00:36:15;;;;;;;24.50;17.10;;;9.80;97.90;;;;;;5027532;28;20196;-78
2022/03/30 00:38:42;;;;;;;25.47;17.03;;;10.00;97.40;;;;;;5028765;28;20215;-78
2022/03/30 00:41:10;;;;;;;25.87;16.93;;;9.90;97.80;;;;;;5027502;28;20195;-78
2022/03/30 00:43:37;;;;;;;29.40;17.40;;;9.90;98.40;;;;;;5021962;28;20219;-78
2022/03/30 00:46:06;;;;;;;23.87;17.00;;;9.50;98.60;;;;;;5022895;28;20218;-77
2022/03/30 00:48:34;;;;;;;25.43;16.27;;;9.70;98.90;;;;;;5018400;28;20211;-77
2022/03/30 00:51:02;;;;;;;25.90;17.30;;;9.70;98.60;;;;;;5032600;28;20237;-77
2022/03/30 00:53:29;;;;;;;25.17;17.63;;;9.90;98.30;;;;;;5019831;28;20223;-77
2022/03/30 00:55:57;;;;;;;27.17;16.87;;;10.00;97.70;;;;;;5030905;28;20202;-77
2022/03/30 00:58:27;;;;;;;28.10;17.90;;;9.80;98.10;;;;;;5033201;28;20677;-77
2022/03/30 01:00:55;;;;;;;28.07;16.47;;;9.70;98.70;;;;;;5028809;28;20200;-77
2022/03/30 01:03:26;;;;;;;23.83;16.27;;;9.80;98.50;;;;;;5043157;28;20232;-77
2022/03/30 01:05:53;;;;;;;24.90;16.47;;;9.80;98.70;;;;;;5018285;28;20191;-78
2022/03/30 01:08:20;;;;;;;28.50;18.47;;;9.60;98.30;;;;;;5023008;28;20199;-77
2022/03/30 01:10:49;;;;;;;24.83;16.50;;;9.60;98.80;;;;;;5018790;28;20266;-77
2022/03/30 01:13:18;;;;;;;25.43;16.87;;;9.60;99.10;;;;;;5014472;28;20219;-78
2022/03/30 01:15:47;;;;;;;30.60;17.27;;;9.70;98.90;;;;;;5026809;28;20215;-76
2022/03/30 01:18:14;;;;;;;27.27;16.67;;;9.60;98.60;;;;;;5021957;28;20645;-76
2022/03/30 01:20:48;;;;;;;26.37;16.30;;;9.60;98.60;;;;;;5022245;28;20203;-77
2022/03/30 01:23:15;;;;;;;29.83;17.30;;;9.60;99.00;;;;;;5038249;28;20681;-78
2022/03/30 01:25:43;;;;;;;23.57;16.80;;;9.50;98.90;;;;;;5032304;28;20211;-78
2022/03/30 01:28:10;;;;;;;27.03;16.60;;;9.50;99.20;;;;;;5023952;28;20203;-78
2022/03/30 01:33:22;;;;;;;23.23;16.03;;;9.30;99.20;;;;;;5030455;28;20219;-78
2022/03/30 01:36:07;;;;;;;30.17;17.03;;;9.50;99.80;;;;;;5026316;28;20662;-78
2022/03/30 01:38:34;;;;;;;32.03;17.47;;;9.60;99.30;;;;;;5026625;28;20219;-78
2022/03/30 01:41:02;;;;;;;26.20;16.50;;;9.60;99.00;;;;;;5024999;28;20200;-78
2022/03/30 01:43:29;;;;;;;26.07;16.20;;;9.60;99.10;;;;;;5024120;28;20582;-78
2022/03/30 01:45:57;;;;;;;25.87;16.40;;;9.50;99.10;;;;;;5025447;28;20691;-76
2022/03/30 01:48:24;;;;;;;26.87;17.23;;;9.60;99.00;;;;;;5029951;28;20202;-78
2022/03/30 01:50:52;;;;;;;28.00;17.80;;;9.50;99.10;;;;;;5028982;28;20219;-78
2022/03/30 01:53:21;;;;;;;31.73;17.00;;;9.40;99.20;;;;;;5028601;28;20227;-77
2022/03/30 01:55:48;;;;;;;30.23;17.77;;;9.10;99.40;;;;;;5023774;28;20199;-78
2022/03/30 01:58:30;;;;;;;25.27;16.73;;;8.80;99.90;;;;;;5020078;28;20562;-77
2022/03/30 02:00:57;;;;;;;25.63;16.27;;;8.90;99.90;;;;;;5027224;28;20198;-77
2022/03/30 02:03:27;;;;;;;28.20;16.77;;;9.00;99.90;;;;;;5017840;28;20301;-76
2022/03/30 02:05:55;;;;;;;27.13;16.90;;;9.20;99.90;;;;;;5019640;28;20199;-78
2022/03/30 02:08:23;;;;;;;27.00;16.03;;;9.00;99.90;;;;;;5014045;28;20219;-78
2022/03/30 02:10:51;;;;;;;23.90;16.27;;;8.90;99.90;;;;;;5018157;28;20274;-77
2022/03/30 02:13:18;;;;;;;27.60;16.83;;;8.60;99.90;;;;;;5020660;28;20215;-78
2022/03/30 02:15:45;;;;;;;27.57;16.70;;;8.60;99.90;;;;;;5024961;28;20207;-77
2022/03/30 02:18:13;;;;;;;27.23;16.13;;;8.70;99.90;;;;;;5034652;28;20697;-76
2022/03/30 02:20:41;;;;;;;24.73;16.33;;;8.90;99.90;;;;;;5011198;28;20203;-77
2022/03/30 02:23:08;;;;;;;30.80;18.33;;;8.50;99.90;;;;;;5018568;28;20216;-77
2022/03/30 02:25:37;;;;;;;24.63;16.73;;;8.20;99.90;;;;;;5018251;28;20196;-78
2022/03/30 02:28:05;;;;;;;23.40;16.07;;;8.40;99.90;;;;;;5020830;28;20206;-77
2022/03/30 02:30:32;;;;;;;27.77;16.13;;;8.70;99.90;;;;;;5030561;28;20572;-77
2022/03/30 02:33:01;;;;;;;27.53;16.43;;;9.00;99.90;;;;;;5027436;28;20233;-78
2022/03/30 02:35:29;;;;;;;24.77;16.60;;;9.00;99.90;;;;;;5014913;28;20665;-78
2022/03/30 02:37:57;;;;;;;24.20;15.77;;;9.10;99.90;;;;;;5024115;28;20203;-78
2022/03/30 02:40:25;;;;;;;28.00;15.97;;;9.20;99.90;;;;;;5028402;28;20195;-77
2022/03/30 02:42:54;;;;;;;24.97;15.83;;;9.10;99.90;;;;;;5025568;28;20226;-77
2022/03/30 02:45:21;;;;;;;28.77;16.37;;;9.10;99.90;;;;;;5015363;28;20196;-77
2022/03/30 02:50:33;;;;;;;27.00;17.03;;;8.90;99.90;;;;;;5028476;28;20191;-77
2022/03/30 02:53:01;;;;;;;29.27;16.20;;;8.90;99.90;;;;;;5025002;28;20227;-77
2022/03/30 02:55:28;;;;;;;22.73;15.40;;;9.00;99.90;;;;;;5019695;28;20218;-77
2022/03/30 02:57:57;;;;;;;24.20;15.97;;;8.80;99.90;;;;;;5021942;28;20206;-78
2022/03/30 03:00:24;;;;;;;27.43;15.73;;;8.60;99.90;;;;;;5037943;28;20203;-77
2022/03/30 03:02:51;;;;;;;27.23;15.80;;;8.70;99.90;;;;;;5014619;28;20219;-78
2022/03/30 03:05:19;;;;;;;27.40;16.33;;;8.70;99.90;;;;;;5014971;28;20577;-78
2022/03/30 03:07:47;;;;;;;25.73;14.83;;;8.70;99.90;;;;;;5023656;28;20195;-78
2022/03/30 03:10:14;;;;;;;22.33;15.67;;;8.70;99.90;;;;;;5024264;28;20203;-77
2022/03/30 03:12:41;;;;;;;22.10;15.63;;;8.60;99.90;;;;;;5016589;28;20223;-78
2022/03/30 03:15:11;;;;;;;24.63;15.33;;;8.60;99.90;;;;;;5036400;28;20215;-78
2022/03/30 03:17:38;;;;;;;23.70;15.50;;;8.60;99.90;;;;;;5027339;28;20209;-77
2022/03/30 03:20:06;;;;;;;25.57;16.77;;;8.50;99.90;;;;;;5018319;28;20206;-78
2022/03/30 03:22:34;;;;;;;22.90;15.53;;;8.60;99.90;;;;;;5026296;28;20728;-77
2022/03/30 03:25:01;;;;;;;25.40;15.77;;;8.50;99.90;;;;;;5042405;28;20203;-77
2022/03/30 03:27:29;;;;;;;24.83;16.17;;;8.40;99.90;;;;;;5031760;28;20202;-78
2022/03/30 03:29:56;;;;;;;24.23;15.57;;;8.30;99.90;;;;;;5033132;28;20282;-78
2022/03/30 03:32:25;;;;;;;25.73;16.23;;;8.30;99.90;;;;;;5033378;28;20225;-77
2022/03/30 03:34:52;;;;;;;24.30;14.63;;;8.30;99.90;;;;;;5030316;28;20665;-78
2022/03/30 03:37:20;;;;;;;24.90;15.47;;;8.30;99.90;;;;;;5018967;28;20203;-78
2022/03/30 03:39:48;;;;;;;27.27;16.97;;;8.20;99.90;;;;;;5019653;28;20672;-78
2022/03/30 03:42:16;;;;;;;23.20;15.83;;;8.10;99.90;;;;;;5032029;28;20223;-78
2022/03/30 03:44:43;;;;;;;27.73;17.40;;;8.10;99.90;;;;;;5031951;28;20195;-77
2022/03/30 03:47:11;;;;;;;23.50;15.33;;;8.00;99.90;;;;;;5019879;28;20199;-77
2022/03/30 03:49:40;;;;;;;26.67;16.70;;;8.10;99.90;;;;;;5036709;28;20195;-78
2022/03/30 03:52:08;;;;;;;26.13;16.93;;;7.90;99.90;;;;;;5032041;28;20685;-77
2022/03/30 03:54:35;;;;;;;26.87;17.13;;;7.90;99.90;;;;;;5027629;28;20200;-77
2022/03/30 03:57:03;;;;;;;27.17;15.53;;;7.90;99.90;;;;;;5035264;28;20206;-77
2022/03/30 03:59:30;;;;;;;25.50;16.20;;;7.50;99.90;;;;;;5018703;28;20215;-77
2022/03/30 04:01:58;;;;;;;28.67;17.13;;;7.50;99.90;;;;;;5014982;28;20228;-75
2022/03/30 04:04:25;;;;;;;29.00;16.77;;;7.30;99.90;;;;;;5018876;28;20187;-76
2022/03/30 04:06:56;;;;;;;27.20;17.57;;;7.20;99.90;;;;;;5033973;28;20199;-75
2022/03/30 04:09:23;;;;;;;27.73;17.50;;;7.30;99.90;;;;;;5050192;28;20784;-75
2022/03/30 04:11:52;;;;;;;28.07;17.00;;;7.40;99.90;;;;;;5018985;28;20223;-75
2022/03/30 04:14:20;;;;;;;31.40;17.20;;;7.10;99.90;;;;;;5040789;28;20243;-75
2022/03/30 04:16:48;;;;;;;29.10;16.70;;;6.90;99.90;;;;;;5019254;28;20200;-75
2022/03/30 04:19:26;;;;;;;24.80;16.67;;;6.90;99.90;;;;;;5027609;28;20211;-75
2022/03/30 04:21:53;;;;;;;25.03;16.23;;;6.90;99.90;;;;;;5038293;28;20215;-75
2022/03/30 04:24:22;;;;;;;30.80;17.43;;;7.20;99.90;;;;;;5018219;28;20546;-75
2022/03/30 04:26:49;;;;;;;32.17;17.50;;;7.40;99.90;;;;;;5016450;28;20680;-76
2022/03/30 04:29:16;;;;;;;27.10;17.33;;;7.40;99.90;;;;;;5021732;28;20198;-75
2022/03/30 04:31:44;;;;;;;28.07;16.93;;;7.40;99.90;;;;;;5025668;28;20223;-75
2022/03/30 04:34:11;;;;;;;28.93;17.30;;;7.40;99.90;;;;;;5032481;28;20223;-75
2022/03/30 04:36:38;;;;;;;28.37;17.20;;;7.60;99.90;;;;;;5021649;28;20563;-75
2022/03/30 04:39:06;;;;;;;28.27;17.73;;;7.50;99.90;;;;;;5033780;28;20557;-75
2022/03/30 04:41:34;;;;;;;26.80;16.53;;;7.40;99.90;;;;;;5019474;28;20203;-75
2022/03/30 04:44:02;;;;;;;26.47;16.43;;;7.50;99.90;;;;;;5018171;28;20686;-75
2022/03/30 04:46:29;;;;;;;27.17;18.40;;;7.50;99.90;;;;;;5018605;28;20208;-75
2022/03/30 04:48:56;;;;;;;28.50;17.40;;;7.40;99.90;;;;;;5019283;28;20207;-75
2022/03/30 04:51:29;;;;;;;26.00;17.47;;;7.10;99.90;;;;;;5020328;28;20203;-76
2022/03/30 04:53:56;;;;;;;28.17;17.73;;;7.20;99.90;;;;;;5019785;28;20219;-76
2022/03/30 04:56:24;;;;;;;28.67;17.10;;;7.20;99.90;;;;;;5019779;28;20218;-75
2022/03/30 04:58:53;;;;;;;26.83;18.00;;;7.20;99.90;;;;;;5019020;28;20665;-75
2022/03/30 05:01:20;;;;;;;28.63;17.00;;;7.10;99.90;;;;;;5014829;28;20666;-75
2022/03/30 05:03:47;;;;;;;33.47;18.37;;;6.40;99.90;;;;;;5021261;28;20219;-75
2022/03/30 05:06:15;;;;;;;28.43;17.57;;;6.20;99.90;;;;;;5024922;28;20200;-76
2022/03/30 05:08:42;;;;;;;28.27;16.70;;;6.30;99.90;;;;;;5026255;28;20206;-79
2022/03/30 05:11:09;;;;;;;20.53;13.50;;;7.10;99.90;;;;;;5022495;28;20572;-79
2022/03/30 05:13:37;;;;;;;25.20;14.43;;;8.80;99.90;;;;;;5019486;28;20224;-79
2022/03/30 05:16:31;;;;;;;;;;;;;;;;;;;;;
2022/03/30 05:18:58;;;;;;;27.90;16.33;;;10.30;99.90;;;;;;5026715;28;20669;-76
2022/03/30 05:21:26;;;;;;;27.97;18.10;;;8.80;99.40;;;;;;5032447;28;20211;-76
2022/03/30 05:24:11;;;;;;;27.47;17.33;;;8.20;99.90;;;;;;5037611;28;20210;-76
2022/03/30 05:26:39;;;;;;;30.23;18.27;;;8.00;99.90;;;;;;5042152;28;20210;-76
2022/03/30 05:29:06;;;;;;;26.80;17.23;;;7.60;99.90;;;;;;5027548;28;20216;-76
2022/03/30 05:31:35;;;;;;;29.83;18.67;;;7.40;99.90;;;;;;5015920;28;20673;-76
2022/03/30 05:34:05;;;;;;;26.57;17.57;;;7.20;99.90;;;;;;5019538;28;20215;-75
2022/03/30 05:36:32;;;;;;;28.57;17.23;;;7.10;99.90;;;;;;5017330;28;20195;-76
2022/03/30 05:39:00;;;;;;;27.37;16.40;;;7.00;99.90;;;;;;5019117;28;20199;-79
2022/03/30 05:41:27;;;;;;;26.80;17.50;;;6.90;99.90;;;;;;5021436;28;20215;-74
2022/03/30 05:43:54;;;;;;;32.07;17.93;;;7.10;99.90;;;;;;5022691;28;20576;-76
2022/03/30 05:46:22;;;;;;;27.43;17.03;;;7.30;99.90;;;;;;4991841;28;20728;-76
2022/03/30 05:48:50;;;;;;;26.43;18.00;;;7.30;99.90;;;;;;5029425;28;20192;-76
2022/03/30 05:51:18;;;;;;;28.53;17.57;;;7.30;99.90;;;;;;5028179;28;20760;-76
2022/03/30 05:53:47;;;;;;;27.23;16.77;;;7.30;99.90;;;;;;5019649;28;20230;-78
2022/03/30 05:56:15;;;;;;;28.07;17.10;;;7.30;99.90;;;;;;5022149;28;20199;-76
2022/03/30 05:58:43;;;;;;;26.67;16.97;;;7.20;99.90;;;;;;5021050;28;20203;-75
2022/03/30 06:01:17;;;;;;;29.67;17.63;;;7.20;99.90;;;;;;5028198;28;20202;-76
2022/03/30 06:03:45;;;;;;;26.43;17.03;;;7.10;99.90;;;;;;5026341;28;20237;-78
2022/03/30 06:06:24;;;;;;;27.20;17.17;;;7.00;99.90;;;;;;5032324;28;20205;-77
2022/03/30 06:08:51;;;;;;;28.60;16.23;;;7.00;99.90;;;;;;5024439;28;21139;-76
2022/03/30 06:11:19;;;;;;;26.20;16.33;;;7.00;99.90;;;;;;5022178;28;20214;-76
2022/03/30 06:13:46;;;;;;;26.50;15.87;;;7.00;99.90;;;;;;5027077;28;20223;-76
2022/03/30 06:16:16;;;;;;;26.60;16.87;;;7.10;99.90;;;;;;5033482;28;20211;-76
2022/03/30 06:18:44;;;;;;;24.23;15.63;;;6.80;99.90;;;;;;5032301;28;20206;-76
2022/03/30 06:21:11;;;;;;;25.00;15.73;;;6.90;99.90;;;;;;5032224;28;20206;-76
2022/03/30 06:23:42;;;;;;;23.00;16.03;;;7.00;99.90;;;;;;5027383;28;20214;-76
2022/03/30 06:26:09;;;;;;;23.50;15.40;;;7.00;99.90;;;;;;5024184;28;20207;-75
2022/03/30 06:28:37;;;;;;;24.97;16.00;;;7.10;99.90;;;;;;5026927;28;20211;-76
2022/03/30 06:31:04;;;;;;;29.57;17.13;;;7.30;99.90;;;;;;5033270;28;20201;-76
2022/03/30 06:33:31;;;;;;;25.20;15.47;;;7.30;99.90;;;;;;5027692;28;20832;-76
2022/03/30 06:35:59;;;;;;;24.67;15.80;;;7.20;99.90;;;;;;5012520;28;20203;-75
2022/03/30 06:38:28;;;;;;;29.07;15.57;;;7.30;99.90;;;;;;5011879;28;20573;-76
2022/03/30 06:40:57;;;;;;;25.80;16.13;;;7.40;99.90;;;;;;5018302;28;20200;-76
2022/03/30 06:43:24;;;;;;;28.53;16.77;;;7.50;99.90;;;;;;5022804;28;20215;-76
2022/03/30 06:45:51;;;;;;;23.70;15.73;;;7.50;99.90;;;;;;5012411;28;20192;-76
2022/03/30 06:48:19;;;;;;;26.13;17.63;;;7.50;99.90;;;;;;5021346;28;20196;-76
2022/03/30 06:50:46;;;;;;;25.30;15.80;;;7.50;99.90;;;;;;5029959;28;20207;-76
2022/03/30 06:53:14;;;;;;;24.37;15.20;;;7.50;99.90;;;;;;5012188;28;20585;-75
2022/03/30 06:55:41;;;;;;;24.60;15.53;;;7.50;99.90;;;;;;5027273;28;20218;-76
2022/03/30 06:58:42;;;;;;;29.17;15.47;;;7.60;99.90;;;;;;5019563;28;20201;-75
2022/03/30 07:01:12;;;;;;;27.13;15.63;;;7.60;99.90;;;;;;5034261;28;20215;-76
2022/03/30 07:03:39;;;;;;;24.20;15.60;;;7.60;99.90;;;;;;5027456;28;20250;-76
2022/03/30 07:06:07;;;;;;;22.60;15.33;;;7.60;99.90;;;;;;5042706;28;20195;-75
2022/03/30 07:11:22;;;;;;;22.27;14.80;;;7.80;99.90;;;;;;5045733;28;20665;-74
2022/03/30 07:13:52;;;;;;;25.40;15.63;;;7.90;99.90;;;;;;5019507;28;20234;-78
2022/03/30 07:16:22;;;;;;;27.97;16.47;;;7.80;99.90;;;;;;5032231;28;20203;-77
2022/03/30 07:18:50;;;;;;;25.43;15.93;;;8.00;99.90;;;;;;5032004;28;20222;-77
2022/03/30 07:21:20;;;;;;;23.70;15.17;;;8.20;99.90;;;;;;5033239;28;20179;-77
2022/03/30 07:23:48;;;;;;;24.60;15.93;;;8.10;99.90;;;;;;5023965;28;20222;-78
2022/03/30 07:26:19;;;;;;;26.13;16.43;;;8.10;99.90;;;;;;5050174;28;20198;-78
2022/03/30 07:28:47;;;;;;;22.90;14.93;;;7.90;99.90;;;;;;5024076;28;20196;-77
2022/03/30 07:31:16;;;;;;;26.40;15.73;;;7.90;99.90;;;;;;5028283;28;20673;-75
2022/03/30 07:33:43;;;;;;;23.03;15.23;;;8.10;99.90;;;;;;5043936;28;20223;-76
2022/03/30 07:36:10;;;;;;;24.10;14.90;;;8.20;99.90;;;;;;5026013;28;20211;-76
2022/03/30 07:38:38;;;;;;;26.50;15.87;;;8.10;99.90;;;;;;5029431;28;20195;-78
2022/03/30 07:41:15;;;;;;;21.83;12.97;;;8.10;99.90;;;;;;5027521;28;20192;-77
2022/03/30 07:43:45;;;;;;;27.07;15.93;;;9.60;99.90;;;;;;5023693;28;20223;-78
2022/03/30 07:46:17;;;;;;;24.43;15.27;;;9.70;99.90;;;;;;5015116;28;20200;-77
2022/03/30 07:48:44;;;;;;;26.33;16.13;;;9.60;99.90;;;;;;5030635;28;20202;-78
2022/03/30 07:51:12;;;;;;;24.73;16.77;;;8.90;99.90;;;;;;5030639;28;20203;-77
2022/03/30 07:53:39;;;;;;;27.13;16.27;;;8.90;99.90;;;;;;5021234;28;20231;-77
2022/03/30 07:56:07;;;;;;;26.03;15.93;;;8.80;99.90;;;;;;5023775;28;20572;-77
2022/03/30 07:58:50;;;;;;;27.07;17.07;;;8.80;99.90;;;;;;5027238;28;20199;-77
2022/03/30 08:01:22;;;;;;;23.90;16.30;;;8.80;99.90;;;;;;5032466;28;20206;-79
2022/03/30 08:03:50;;;;;;;24.40;17.43;;;8.60;99.90;;;;;;5024871;28;20232;-77
2022/03/30 08:06:20;;;;;;;31.70;18.03;;;8.70;99.90;;;;;;5022271;28;20203;-77
2022/03/30 08:08:48;;;;;;;23.90;17.03;;;8.60;99.90;;;;;;5031132;28;20225;-77
2022/03/30 08:11:15;;;;;;;29.17;17.60;;;8.50;99.90;;;;;;5029989;28;20665;-77
2022/03/30 08:13:42;;;;;;;26.77;16.83;;;8.50;99.90;;;;;;5014262;28;20219;-77
2022/03/30 08:16:11;;;;;;;27.90;16.73;;;8.60;99.90;;;;;;5022381;28;20222;-77
2022/03/30 08:18:40;;;;;;;27.77;16.30;;;9.00;99.90;;;;;;5029020;28;20196;-78
2022/03/30 08:23:52;;;;;;;25.37;15.80;;;9.40;99.90;;;;;;5030889;28;20596;-78
2022/03/30 08:26:21;;;;;;;25.57;16.43;;;9.40;99.90;;;;;;5032315;28;20203;-78
2022/03/30 08:28:48;;;;;;;24.40;15.13;;;9.50;99.90;;;;;;5031084;28;20211;-78
2022/03/30 08:31:16;;;;;;;17.10;11.13;;;9.50;99.90;;;;;;5026937;28;20196;-78
2022/03/30 08:33:45;;;;;;;23.90;14.27;;;9.70;99.90;;;;;;5020756;28;20216;-79
2022/03/30 08:36:16;;;;;;;23.07;13.80;;;9.70;99.70;;;;;;5024409;28;20306;-78
2022/03/30 08:38:45;;;;;;;21.23;12.53;;;9.80;99.90;;;;;;5027736;28;20198;-77
2022/03/30 08:41:12;;;;;;;20.17;13.30;;;9.80;99.50;;;;;;5033082;28;20250;-78
2022/03/30 08:43:41;;;;;;;24.67;13.47;;;9.70;99.30;;;;;;5042950;28;20712;-78
2022/03/30 08:46:09;;;;;;;18.23;12.83;;;9.80;99.30;;;;;;5030635;28;20561;-79
2022/03/30 08:48:36;;;;;;;20.23;12.97;;;9.80;99.00;;;;;;5025832;28;20588;-79
2022/03/30 08:51:07;;;;;;;20.20;12.70;;;9.70;99.20;;;;;;5015787;28;20211;-78
2022/03/30 08:53:35;;;;;;;19.57;12.27;;;9.80;99.40;;;;;;5029890;28;20220;-83
2022/03/30 08:56:03;;;;;;;22.70;13.00;;;9.80;99.20;;;;;;5028680;28;20230;-82
2022/03/30 08:58:31;;;;;;;21.00;13.30;;;9.90;99.40;;;;;;5015840;28;20211;-81
2022/03/30 09:01:08;;;;;;;22.37;13.77;;;10.10;98.70;;;;;;5024448;28;20203;-81
2022/03/30 09:03:35;;;;;;;20.70;12.27;;;10.20;98.20;;;;;;5022928;28;20219;-81
2022/03/30 09:06:03;;;;;;;19.53;13.00;;;10.10;98.10;;;;;;5031143;28;20191;-81
2022/03/30 09:08:32;;;;;;;17.67;11.47;;;10.20;97.90;;;;;;5018134;28;20577;-81
2022/03/30 09:11:05;;;;;;;19.83;12.63;;;10.30;97.70;;;;;;5024805;28;20202;-81
2022/03/30 09:13:32;;;;;;;19.63;12.17;;;10.30;97.60;;;;;;5035296;28;20239;-82
2022/03/30 09:16:00;;;;;;;18.53;11.87;;;10.50;97.10;;;;;;5027716;28;20208;-81
2022/03/30 09:18:28;;;;;;;19.53;12.17;;;10.40;97.30;;;;;;5019237;28;20199;-80
2022/03/30 09:20:57;;;;;;;18.70;11.80;;;10.50;97.20;;;;;;5027558;28;20200;-84
2022/03/30 09:23:27;;;;;;;19.60;11.07;;;10.50;96.50;;;;;;5030740;28;20724;-82
2022/03/30 09:25:56;;;;;;;14.73;10.53;;;10.40;96.00;;;;;;5021027;28;20179;-85
2022/03/30 09:28:28;;;;;;;17.80;11.13;;;10.40;96.10;;;;;;5025047;28;20210;-81
2022/03/30 09:30:55;;;;;;;16.17;10.63;;;10.30;95.90;;;;;;5029322;28;20202;-79
2022/03/30 09:33:24;;;;;;;16.97;10.63;;;10.30;96.10;;;;;;5022146;28;20226;-77
2022/03/30 09:35:51;;;;;;;18.10;11.60;;;10.20;96.30;;;;;;5029486;28;20222;-77
2022/03/30 09:38:25;;;;;;;17.47;11.20;;;10.30;96.50;;;;;;5028859;28;20200;-77
2022/03/30 09:40:57;;;;;;;18.80;10.33;;;10.40;96.60;;;;;;5040662;28;20207;-78
2022/03/30 09:43:29;;;;;;;16.03;10.23;;;10.50;96.90;;;;;;5020066;28;20701;-78
2022/03/30 09:46:08;;;;;;;20.33;10.93;;;10.60;96.60;;;;;;5023371;28;20207;-78
2022/03/30 09:48:49;;;;;;;18.67;11.20;;;10.60;96.40;;;;;;5020469;28;20209;-78
2022/03/30 09:51:17;;;;;;;18.37;11.70;;;11.00;96.10;;;;;;5025107;28;20577;-77
2022/03/30 09:53:45;;;;;;;17.13;11.23;;;11.00;95.70;;;;;;5019176;28;20230;-78
2022/03/30 09:56:18;;;;;;;16.70;10.30;;;10.80;95.50;;;;;;5029642;28;20215;-78
2022/03/30 09:58:46;;;;;;;16.60;10.40;;;10.80;95.20;;;;;;5031135;28;20207;-79
2022/03/30 10:01:20;;;;;;;15.90;11.17;;;10.90;95.20;;;;;;5021674;28;20199;-78
2022/03/30 10:03:51;;;;;;;14.90;10.90;;;11.10;95.20;;;;;;5028131;28;20246;-78
2022/03/30 10:06:24;;;;;;;13.40;10.47;;;11.10;94.80;;;;;;5027218;28;20191;-78
2022/03/30 10:08:52;;;;;;;14.93;10.80;;;11.20;94.80;;;;;;5029641;28;20203;-78
2022/03/30 10:11:22;;;;;;;16.17;11.00;;;11.40;94.40;;;;;;5041863;28;20207;-78
2022/03/30 10:13:54;;;;;;;12.93;7.60;;;11.40;94.40;;;;;;5020189;28;20228;-81
2022/03/30 10:16:23;;;;;;;14.25;9.43;;;12.20;96.60;;;;;;5020951;28;20218;-78
2022/03/30 10:19:02;;;;;;;14.43;10.07;;;12.50;92.90;;;;;;5039204;28;20199;-78
2022/03/30 10:21:37;;;;;;;15.23;10.57;;;12.10;92.70;;;;;;5016725;28;20241;-78
2022/03/30 10:24:39;;;;;;;14.75;10.65;;;12.20;92.90;;;;;;5024450;28;20926;-78
2022/03/30 10:27:18;;;;;;;15.30;10.63;;;12.20;93.60;;;;;;5024345;28;20193;-78
2022/03/30 10:29:50;;;;;;;20.08;12.25;;;12.40;92.60;;;;;;5042645;28;20188;-78
2022/03/30 10:32:20;;;;;;;14.60;10.23;;;12.50;92.60;;;;;;5018532;28;20235;-77
2022/03/30 10:35:00;;;;;;;15.82;11.70;;;12.40;92.20;;;;;;5023203;28;20576;-80
2022/03/30 10:37:36;;;;;;;13.18;10.80;;;12.70;92.00;;;;;;5018161;28;20672;-79
2022/03/30 10:40:10;;;;;;;13.35;10.27;;;12.70;91.60;;;;;;5021155;28;20202;-79
2022/03/30 10:42:59;;;;;;;17.52;10.65;;;12.60;91.40;;;;;;5029361;28;20226;-78
2022/03/30 10:45:40;;;;;;;13.05;10.63;;;12.20;91.60;;;;;;5016648;28;20539;-79
2022/03/30 10:48:13;;;;;;;12.93;10.25;;;12.10;91.60;;;;;;5027516;28;20204;-79
2022/03/30 10:50:57;;;;;;;13.65;10.05;;;11.80;91.60;;;;;;5029914;28;20204;-80
2022/03/30 10:53:49;;;;;;;13.68;10.23;;;11.60;92.10;;;;;;5009827;28;20223;-82
2022/03/30 10:56:37;;;;;;;17.48;11.32;;;11.70;92.40;;;;;;5015916;28;20216;-78
2022/03/30 10:59:14;;;;;;;16.30;10.57;;;12.00;92.70;;;;;;5038843;28;20195;-80
2022/03/30 11:01:42;;;;;;;16.92;11.32;;;12.20;92.20;;;;;;5023513;28;20206;-78
2022/03/30 11:04:24;;;;;;;15.27;10.40;;;12.40;92.50;;;;;;5017623;28;20216;-78
2022/03/30 11:07:40;;;;;;;14.68;10.18;;;12.70;92.10;;;;;;5037687;28;20214;-78
2022/03/30 11:10:45;;;;;;;16.65;10.63;;;12.80;91.00;;;;;;5022876;28;20203;-81
2022/03/30 11:13:12;;;;;;;12.02;9.73;;;12.60;90.70;;;;;;5008796;28;20235;-81
2022/03/30 11:16:15;;;;;;;11.50;8.05;;;12.50;90.70;;;;;;5023956;28;20217;-82
2022/03/30 11:19:04;;;;;;;9.65;8.10;;;13.40;91.50;;;;;;4953243;28;20643;-81
2022/03/30 11:21:32;;;;;;;12.82;10.32;;;14.30;90.80;;;;;;5018301;28;20215;-81
2022/03/30 11:24:12;;;;;;;13.57;10.25;;;14.20;88.00;;;;;;5028063;28;20210;-80
2022/03/30 11:27:20;;;;;;;15.20;10.45;;;13.70;87.10;;;;;;5036054;28;20199;-78
2022/03/30 11:30:00;;;;;;;14.90;10.65;;;13.60;88.30;;;;;;5022843;28;20206;-78
2022/03/30 11:33:06;;;;;;;14.77;9.77;;;13.80;88.70;;;;;;5037538;28;20222;-81
2022/03/30 11:35:39;;;;;;;17.10;11.27;;;13.00;90.00;;;;;;5008008;28;20214;-81
2022/03/30 11:38:21;;;;;;;14.18;11.15;;;13.00;89.60;;;;;;5015981;28;20225;-77
2022/03/30 11:40:50;;;;;;;17.30;11.80;;;13.30;90.80;;;;;;5027048;28;20199;-79
2022/03/30 11:43:19;;;;;;;16.20;11.93;;;13.00;90.40;;;;;;5020031;28;20229;-81
2022/03/30 11:45:48;;;;;;;15.68;12.20;;;13.10;88.80;;;;;;5017845;28;20203;-79
2022/03/30 11:48:15;;;;;;;15.38;11.82;;;13.60;89.20;;;;;;5025578;28;20747;-81
2022/03/30 11:50:45;;;;;;;16.35;12.15;;;13.70;87.30;;;;;;5015397;28;20211;-78
2022/03/30 11:53:16;;;;;;;17.20;13.10;;;13.60;86.00;;;;;;5023544;28;20227;-78
2022/03/30 11:55:53;;;;;;;17.73;13.13;;;13.50;85.50;;;;;;5018689;28;20207;-78
2022/03/30 11:58:28;;;;;;;14.73;12.75;;;13.40;84.40;;;;;;5023985;28;20218;-80
2022/03/30 12:00:57;;;;;;;14.90;12.98;;;13.50;87.10;;;;;;5010960;28;20199;-77
2022/03/30 12:03:25;;;;;;;14.23;12.20;;;13.80;84.90;;;;;;5021678;28;20243;-78
2022/03/30 12:05:59;;;;;;;17.05;12.73;;;13.90;83.90;;;;;;5037382;28;20216;-78
2022/03/30 12:08:28;;;;;;;16.00;11.60;;;13.80;82.80;;;;;;5018313;28;20203;-77
2022/03/30 12:11:00;;;;;;;14.05;10.90;;;14.10;83.20;;;;;;5030861;28;20199;-77
2022/03/30 12:13:29;;;;;;;16.65;12.05;;;14.10;82.30;;;;;;5039832;28;20226;-78
2022/03/30 12:16:35;;;;;;;14.55;11.82;;;14.20;82.50;;;;;;5023011;28;20206;-77
2022/03/30 12:19:16;;;;;;;13.82;12.23;;;14.30;81.70;;;;;;5022569;28;20199;-78
2022/03/30 12:21:45;;;;;;;13.93;11.15;;;14.30;82.20;;;;;;5021734;28;20200;-78
2022/03/30 12:24:16;;;;;;;13.50;10.25;;;14.70;80.20;;;;;;5028044;28;20200;-80
2022/03/30 12:26:50;;;;;;;12.80;10.15;;;14.60;79.60;;;;;;5028348;28;20226;-78
2022/03/30 12:29:18;;;;;;;12.73;10.95;;;15.20;80.60;;;;;;5025130;28;20199;-78
2022/03/30 12:31:51;;;;;;;12.82;10.07;;;15.00;77.90;;;;;;5028717;28;20202;-78
2022/03/30 12:34:20;;;;;;;12.20;9.57;;;15.30;78.20;;;;;;5047544;28;20202;-77
2022/03/30 12:36:53;;;;;;;11.32;9.57;;;15.30;75.90;;;;;;5025685;28;20214;-77
2022/03/30 12:39:22;;;;;;;10.95;9.05;;;14.50;74.20;;;;;;5028773;28;20206;-78
2022/03/30 12:42:00;;;;;;;11.70;9.85;;;14.40;76.30;;;;;;5030137;28;20218;-80
2022/03/30 12:44:29;;;;;;;13.75;9.80;;;14.40;76.40;;;;;;5032527;28;20190;-78
2022/03/30 12:46:58;;;;;;;15.00;10.32;;;14.10;78.70;;;;;;5032827;28;20203;-79
2022/03/30 12:49:39;;;;;;;12.70;10.00;;;14.40;80.80;;;;;;5031483;28;20203;-78
2022/03/30 12:52:11;;;;;;;12.18;9.70;;;15.10;77.60;;;;;;5021223;28;20984;-78
2022/03/30 12:54:38;;;;;;;12.32;9.48;;;15.90;74.00;;;;;;5027663;28;20653;-78
2022/03/30 12:57:06;;;;;;;10.93;8.98;;;16.20;71.30;;;;;;5031237;28;20286;-78
2022/03/30 12:59:34;;;;;;;11.10;8.38;;;16.30;70.10;;;;;;5033082;28;20199;-79
2022/03/30 13:02:17;;;;;;;12.07;8.55;;;16.30;67.50;;;;;;5022634;28;20218;-78
2022/03/30 13:04:50;;;;;;;13.48;8.77;;;16.40;66.50;;;;;;5028567;28;20677;-78